Time;durP1;ratioP1;P1;durP2;ratioP2;P2;SDS_P1;SDS_P2;PMS_P1;PMS_P2;Temp;Humidity;BMP_temperature;BMP_pressure;BME280_temperature;BME280_humidity;BME280_pressure;Samples;Min_cycle;Max_cycle;Signal;HPM_P1;HPM_P2
2023/05/25 00:01:23;;;;;;;19.87;6.27;;;;;;;;;;5076327;28;20798;-66
2023/05/25 00:03:54;;;;;;;11.07;6.30;;;;;;;;;;5076315;28;20441;-67
2023/05/25 00:06:21;;;;;;;11.03;6.40;;;;;;;;;;5076155;28;20420;-67
2023/05/25 00:08:50;;;;;;;10.43;6.33;;;;;;;;;;5076135;28;20781;-67
2023/05/25 00:11:18;;;;;;;12.70;6.63;;;;;;;;;;5076496;28;20451;-67
2023/05/25 00:13:45;;;;;;;13.73;7.70;;;;;;;;;;5077194;28;20450;-66
2023/05/25 00:16:12;;;;;;;11.23;6.30;;;;;;;;;;5076146;28;20474;-67
2023/05/25 00:18:39;;;;;;;14.80;7.40;;;;;;;;;;5076005;28;20507;-67
2023/05/25 00:21:08;;;;;;;14.90;7.03;;;;;;;;;;5076174;28;20919;-67
2023/05/25 00:23:35;;;;;;;13.97;6.60;;;;;;;;;;5076389;28;20443;-67
2023/05/25 00:26:03;;;;;;;9.40;5.83;;;;;;;;;;5076441;28;20442;-67
2023/05/25 00:28:30;;;;;;;15.67;6.80;;;;;;;;;;5076305;28;20468;-67
2023/05/25 00:30:58;;;;;;;10.17;6.37;;;;;;;;;;5076084;28;20453;-67
2023/05/25 00:33:25;;;;;;;18.27;9.63;;;;;;;;;;5076064;28;20440;-67
2023/05/25 00:35:52;;;;;;;10.10;7.37;;;;;;;;;;5076150;28;20449;-67
2023/05/25 00:38:21;;;;;;;13.03;7.27;;;;;;;;;;5075690;28;20992;-67
2023/05/25 00:40:48;;;;;;;16.70;7.53;;;;;;;;;;5075500;28;20482;-67
2023/05/25 00:43:15;;;;;;;13.40;7.47;;;;;;;;;;5075875;28;20437;-66
2023/05/25 00:45:42;;;;;;;12.00;6.47;;;;;;;;;;5075397;28;20448;-67
2023/05/25 00:48:10;;;;;;;11.87;7.40;;;;;;;;;;5075706;28;20472;-67
2023/05/25 00:50:39;;;;;;;15.23;6.93;;;;;;;;;;5075686;28;20462;-67
2023/05/25 00:53:06;;;;;;;10.60;7.23;;;;;;;;;;5075362;28;20531;-67
2023/05/25 00:55:37;;;;;;;14.30;6.13;;;;;;;;;;5075555;28;20508;-67
2023/05/25 00:58:05;;;;;;;13.63;6.90;;;;;;;;;;5075637;28;20823;-67
2023/05/25 01:00:34;;;;;;;13.07;6.40;;;;;;;;;;5075652;28;20472;-67
2023/05/25 01:03:06;;;;;;;11.20;7.33;;;;;;;;;;5075774;28;20439;-67
2023/05/25 01:05:34;;;;;;;14.33;7.40;;;;;;;;;;5075881;28;20433;-70
2023/05/25 01:08:03;;;;;;;10.10;7.07;;;;;;;;;;5075383;28;20446;-67
2023/05/25 01:10:32;;;;;;;21.23;8.50;;;;;;;;;;5075415;28;20446;-67
2023/05/25 01:13:02;;;;;;;12.83;7.30;;;;;;;;;;5074924;28;20952;-67
2023/05/25 01:15:30;;;;;;;12.77;7.40;;;;;;;;;;5075069;28;20845;-67
2023/05/25 01:17:58;;;;;;;15.20;8.67;;;;;;;;;;5075275;28;20505;-68
2023/05/25 01:20:26;;;;;;;9.83;7.00;;;;;;;;;;5075151;28;20511;-67
2023/05/25 01:22:57;;;;;;;11.23;7.30;;;;;;;;;;5075077;28;20929;-70
2023/05/25 01:25:26;;;;;;;14.13;7.03;;;;;;;;;;5074868;28;20425;-67
2023/05/25 01:27:57;;;;;;;15.40;7.53;;;;;;;;;;5074559;28;20946;-67
2023/05/25 01:30:26;;;;;;;14.60;7.30;;;;;;;;;;5074754;28;20494;-67
2023/05/25 01:32:53;;;;;;;13.87;7.70;;;;;;;;;;5074876;28;20444;-66
2023/05/25 01:35:21;;;;;;;8.97;6.73;;;;;;;;;;5074482;28;20440;-67
2023/05/25 01:37:48;;;;;;;16.83;7.53;;;;;;;;;;5074436;28;20526;-70
2023/05/25 01:40:17;;;;;;;20.93;7.67;;;;;;;;;;5074770;28;20482;-70
2023/05/25 01:42:44;;;;;;;11.60;6.90;;;;;;;;;;5074354;28;20459;-68
2023/05/25 01:45:12;;;;;;;16.33;9.07;;;;;;;;;;5074798;28;20444;-67
2023/05/25 01:47:45;;;;;;;14.30;7.73;;;;;;;;;;5074508;28;20443;-67
2023/05/25 01:50:22;;;;;;;11.50;7.00;;;;;;;;;;5074290;28;20915;-68
2023/05/25 01:52:52;;;;;;;11.03;7.17;;;;;;;;;;5074409;28;20428;-66
2023/05/25 01:55:21;;;;;;;15.13;7.30;;;;;;;;;;5074458;28;20452;-67
2023/05/25 01:57:51;;;;;;;9.67;6.70;;;;;;;;;;5074283;28;20437;-67
2023/05/25 02:00:20;;;;;;;12.07;8.20;;;;;;;;;;5074309;28;20472;-67
2023/05/25 02:02:47;;;;;;;17.37;8.00;;;;;;;;;;5073994;28;20539;-67
2023/05/25 02:05:15;;;;;;;13.40;7.03;;;;;;;;;;5074003;28;20444;-68
2023/05/25 02:07:42;;;;;;;13.60;8.15;;;;;;;;;;5073850;28;20462;-68
2023/05/25 02:10:10;;;;;;;13.00;7.30;;;;;;;;;;5074215;28;20202;-68
2023/05/25 02:12:38;;;;;;;14.40;8.53;;;;;;;;;;5074003;28;20437;-67
2023/05/25 02:15:06;;;;;;;12.95;7.80;;;;;;;;;;5074205;28;20447;-69
2023/05/25 02:17:35;;;;;;;21.80;8.82;;;;;;;;;;5074044;28;20230;-69
2023/05/25 02:20:03;;;;;;;17.40;9.47;;;;;;;;;;5074013;28;20276;-69
2023/05/25 02:22:31;;;;;;;13.17;8.07;;;;;;;;;;5073629;28;20958;-68
2023/05/25 02:24:58;;;;;;;18.60;8.20;;;;;;;;;;5074201;28;20460;-68
2023/05/25 02:27:26;;;;;;;11.27;8.13;;;;;;;;;;5073939;28;20440;-68
2023/05/25 02:29:54;;;;;;;15.60;8.00;;;;;;;;;;5074400;28;20443;-69
2023/05/25 02:32:21;;;;;;;11.23;7.93;;;;;;;;;;5073937;28;20436;-68
2023/05/25 02:34:49;;;;;;;12.43;8.57;;;;;;;;;;5073863;28;20918;-70
2023/05/25 02:37:16;;;;;;;17.20;8.50;;;;;;;;;;5073446;28;20446;-69
2023/05/25 02:39:43;;;;;;;13.30;7.57;;;;;;;;;;5073694;28;20922;-68
2023/05/25 02:42:10;;;;;;;15.43;8.47;;;;;;;;;;5073618;28;20445;-69
2023/05/25 02:44:37;;;;;;;13.40;8.77;;;;;;;;;;5073763;28;20469;-73
2023/05/25 02:47:06;;;;;;;14.50;8.30;;;;;;;;;;5073266;28;20448;-69
2023/05/25 02:49:33;;;;;;;19.93;8.77;;;;;;;;;;5073318;28;20918;-68
2023/05/25 02:52:01;;;;;;;11.60;8.20;;;;;;;;;;5073534;28;20441;-69
2023/05/25 02:54:28;;;;;;;16.50;8.00;;;;;;;;;;5074028;28;20444;-69
2023/05/25 02:56:55;;;;;;;21.70;9.80;;;;;;;;;;5073509;28;20484;-69
2023/05/25 02:59:23;;;;;;;13.60;9.87;;;;;;;;;;5073473;28;20452;-69
2023/05/25 03:01:50;;;;;;;14.23;8.40;;;;;;;;;;5073082;28;20480;-69
2023/05/25 03:04:19;;;;;;;18.08;8.60;;;;;;;;;;5073109;28;20441;-69
2023/05/25 03:06:46;;;;;;;16.83;9.50;;;;;;;;;;5073450;28;20555;-69
2023/05/25 03:09:14;;;;;;;12.05;9.60;;;;;;;;;;5073456;28;20771;-69
2023/05/25 03:11:41;;;;;;;14.13;9.85;;;;;;;;;;5073446;28;20208;-69
2023/05/25 03:14:09;;;;;;;14.80;9.75;;;;;;;;;;5073364;28;20204;-69
2023/05/25 03:16:37;;;;;;;14.82;10.20;;;;;;;;;;5073383;28;20230;-68
2023/05/25 03:19:05;;;;;;;13.98;8.50;;;;;;;;;;5072916;28;20289;-69
2023/05/25 03:21:33;;;;;;;19.07;9.83;;;;;;;;;;5072944;28;20220;-68
2023/05/25 03:24:00;;;;;;;16.97;9.40;;;;;;;;;;5073093;28;20802;-69
2023/05/25 03:26:27;;;;;;;17.10;11.17;;;;;;;;;;5073453;28;20954;-69
2023/05/25 03:28:55;;;;;;;17.90;9.57;;;;;;;;;;5074906;28;20940;-69
2023/05/25 03:31:22;;;;;;;17.85;9.73;;;;;;;;;;5077573;28;20448;-68
2023/05/25 03:33:49;;;;;;;21.87;11.03;;;;;;;;;;5077439;28;20202;-69
2023/05/25 03:36:17;;;;;;;18.30;10.57;;;;;;;;;;5077173;28;20445;-69
2023/05/25 03:38:45;;;;;;;17.37;10.07;;;;;;;;;;5076727;28;20223;-68
2023/05/25 03:41:12;;;;;;;18.23;9.67;;;;;;;;;;5077012;28;20495;-68
2023/05/25 03:43:40;;;;;;;26.00;10.37;;;;;;;;;;5077028;28;20443;-68
2023/05/25 03:46:08;;;;;;;18.08;10.73;;;;;;;;;;5077023;28;20543;-68
2023/05/25 03:48:36;;;;;;;17.88;9.95;;;;;;;;;;5077009;28;20206;-67
2023/05/25 03:51:03;;;;;;;19.08;10.43;;;;;;;;;;5075536;28;20199;-68
2023/05/25 03:53:30;;;;;;;18.57;9.67;;;;;;;;;;5076573;28;20217;-70
2023/05/25 03:55:59;;;;;;;16.63;10.50;;;;;;;;;;5077188;28;20489;-69
2023/05/25 03:58:26;;;;;;;12.93;9.40;;;;;;;;;;5076256;28;20194;-69
2023/05/25 04:00:55;;;;;;;18.40;9.90;;;;;;;;;;5076172;28;20479;-69
2023/05/25 04:03:22;;;;;;;17.37;10.40;;;;;;;;;;5076643;28;20452;-68
2023/05/25 04:05:49;;;;;;;22.23;10.87;;;;;;;;;;5076343;28;20448;-69
2023/05/25 04:08:17;;;;;;;15.82;10.65;;;;;;;;;;5076369;28;20440;-69
2023/05/25 04:10:45;;;;;;;15.35;10.65;;;;;;;;;;5076025;28;20657;-69
2023/05/25 04:13:14;;;;;;;13.17;9.97;;;;;;;;;;5075937;28;20199;-68
2023/05/25 04:15:41;;;;;;;18.60;11.63;;;;;;;;;;5076169;28;20488;-68
2023/05/25 04:18:08;;;;;;;24.30;10.55;;;;;;;;;;5076656;28;20433;-69
2023/05/25 04:20:36;;;;;;;20.30;10.87;;;;;;;;;;5076452;28;20194;-68
2023/05/25 04:23:03;;;;;;;14.40;10.13;;;;;;;;;;5076140;28;20443;-68
2023/05/25 04:25:31;;;;;;;19.37;12.00;;;;;;;;;;5076141;28;20467;-69
2023/05/25 04:27:59;;;;;;;21.30;12.13;;;;;;;;;;5076098;28;20441;-68
2023/05/25 04:30:28;;;;;;;17.70;10.50;;;;;;;;;;5075929;28;20589;-68
2023/05/25 04:32:56;;;;;;;16.38;9.75;;;;;;;;;;5076229;28;20529;-68
2023/05/25 04:35:23;;;;;;;20.65;11.35;;;;;;;;;;5075569;28;20198;-68
2023/05/25 04:37:53;;;;;;;21.85;11.00;;;;;;;;;;5075711;28;20197;-68
2023/05/25 04:40:20;;;;;;;22.63;11.50;;;;;;;;;;5075096;28;20586;-71
2023/05/25 04:42:47;;;;;;;18.53;10.20;;;;;;;;;;5075549;28;21035;-68
2023/05/25 04:45:16;;;;;;;17.20;9.10;;;;;;;;;;5075875;28;20611;-69
2023/05/25 04:47:46;;;;;;;13.47;9.40;;;;;;;;;;5075593;28;20449;-69
2023/05/25 04:50:13;;;;;;;21.10;10.07;;;;;;;;;;5075435;28;20475;-69
2023/05/25 04:52:40;;;;;;;17.77;9.50;;;;;;;;;;5075942;28;20455;-69
2023/05/25 04:55:08;;;;;;;14.50;10.70;;;;;;;;;;5075464;28;20535;-68
2023/05/25 04:57:35;;;;;;;16.38;8.95;;;;;;;;;;5075123;28;20484;-69
2023/05/25 05:00:02;;;;;;;15.43;10.17;;;;;;;;;;5075071;28;20202;-69
2023/05/25 05:02:29;;;;;;;16.27;9.80;;;;;;;;;;5075228;28;20516;-68
2023/05/25 05:04:58;;;;;;;14.97;9.97;;;;;;;;;;5075381;28;20527;-68
2023/05/25 05:07:25;;;;;;;17.20;9.43;;;;;;;;;;5075059;28;20930;-69
2023/05/25 05:09:52;;;;;;;18.43;11.07;;;;;;;;;;5074821;28;20445;-68
2023/05/25 05:12:20;;;;;;;16.20;9.70;;;;;;;;;;5074938;28;20455;-68
2023/05/25 05:14:47;;;;;;;14.40;9.80;;;;;;;;;;5075025;28;20440;-68
2023/05/25 05:17:14;;;;;;;18.27;10.20;;;;;;;;;;5074812;28;20468;-69
2023/05/25 05:19:41;;;;;;;17.80;9.43;;;;;;;;;;5074498;28;20441;-68
2023/05/25 05:22:12;;;;;;;14.70;8.93;;;;;;;;;;5074906;28;20476;-69
2023/05/25 05:24:39;;;;;;;18.60;8.90;;;;;;;;;;5074684;28;20432;-69
2023/05/25 05:27:06;;;;;;;12.10;10.50;;;;;;;;;;5074624;28;20434;-69
2023/05/25 05:29:33;;;;;;;14.07;9.17;;;;;;;;;;5074655;28;20449;-69
2023/05/25 05:32:01;;;;;;;14.80;8.53;;;;;;;;;;5075031;28;20478;-68
2023/05/25 05:34:29;;;;;;;19.93;10.30;;;;;;;;;;5074845;28;20440;-69
2023/05/25 05:36:56;;;;;;;21.10;10.77;;;;;;;;;;5074563;28;20448;-69
2023/05/25 05:39:25;;;;;;;13.57;9.07;;;;;;;;;;5074690;28;20524;-69
2023/05/25 05:41:52;;;;;;;10.90;9.10;;;;;;;;;;5074312;28;20479;-68
2023/05/25 05:44:20;;;;;;;13.13;8.60;;;;;;;;;;5074841;28;20515;-67
2023/05/25 05:46:47;;;;;;;11.47;8.87;;;;;;;;;;5075023;28;20451;-68
2023/05/25 05:49:14;;;;;;;17.43;9.30;;;;;;;;;;5074852;28;20445;-68
2023/05/25 05:51:41;;;;;;;13.47;10.07;;;;;;;;;;5073203;28;20476;-68
2023/05/25 05:54:08;;;;;;;21.03;8.90;;;;;;;;;;5074511;28;20444;-68
2023/05/25 05:56:37;;;;;;;16.20;9.80;;;;;;;;;;5074341;28;20936;-68
2023/05/25 05:59:04;;;;;;;14.30;9.50;;;;;;;;;;5074397;28;20444;-68
2023/05/25 06:01:31;;;;;;;10.97;8.93;;;;;;;;;;5074215;28;20477;-68
2023/05/25 06:03:59;;;;;;;18.63;9.13;;;;;;;;;;5074553;28;20468;-68
2023/05/25 06:06:26;;;;;;;13.00;9.17;;;;;;;;;;5074171;28;20446;-68
2023/05/25 06:08:53;;;;;;;16.50;10.50;;;;;;;;;;5074482;28;20972;-68
2023/05/25 06:11:20;;;;;;;13.33;8.90;;;;;;;;;;5074218;28;20450;-68
2023/05/25 06:13:49;;;;;;;13.20;9.30;;;;;;;;;;5074463;28;20453;-68
2023/05/25 06:16:16;;;;;;;13.67;9.43;;;;;;;;;;5073501;28;20484;-68
2023/05/25 06:18:43;;;;;;;10.00;7.70;;;;;;;;;;5074010;28;20936;-67
2023/05/25 06:21:10;;;;;;;14.70;8.53;;;;;;;;;;5073554;28;20961;-67
2023/05/25 06:23:37;;;;;;;14.13;8.50;;;;;;;;;;5073664;28;20445;-67
2023/05/25 06:26:05;;;;;;;17.10;9.27;;;;;;;;;;5073822;28;20553;-67
2023/05/25 06:28:32;;;;;;;12.50;8.47;;;;;;;;;;5073965;28;20514;-68
2023/05/25 06:31:00;;;;;;;9.20;7.90;;;;;;;;;;5074090;28;20445;-67
2023/05/25 06:33:28;;;;;;;9.90;6.93;;;;;;;;;;5073760;28;20506;-68
2023/05/25 06:35:59;;;;;;;15.03;8.33;;;;;;;;;;5073732;28;20800;-67
2023/05/25 06:38:26;;;;;;;13.13;8.70;;;;;;;;;;5074095;28;20437;-68
2023/05/25 06:40:53;;;;;;;15.23;8.67;;;;;;;;;;5073288;28;20924;-68
2023/05/25 06:43:20;;;;;;;12.13;8.20;;;;;;;;;;5073438;28;20480;-66
2023/05/25 06:45:48;;;;;;;14.83;9.00;;;;;;;;;;5073249;28;20455;-69
2023/05/25 06:48:17;;;;;;;14.70;8.90;;;;;;;;;;5073917;28;20478;-66
2023/05/25 06:50:44;;;;;;;9.63;8.63;;;;;;;;;;5073566;28;20548;-67
2023/05/25 06:53:12;;;;;;;15.10;11.77;;;;;;;;;;5073706;28;20472;-67
2023/05/25 06:55:39;;;;;;;11.13;8.30;;;;;;;;;;5072992;28;20439;-68
2023/05/25 06:58:06;;;;;;;14.23;8.83;;;;;;;;;;5073132;28;20443;-68
2023/05/25 07:00:33;;;;;;;20.40;9.20;;;;;;;;;;5073437;28;20445;-67
2023/05/25 07:03:01;;;;;;;11.13;8.83;;;;;;;;;;5073263;28;20479;-67
2023/05/25 07:05:30;;;;;;;15.03;8.33;;;;;;;;;;5073377;28;20541;-67
2023/05/25 07:07:57;;;;;;;12.43;8.87;;;;;;;;;;5072950;28;20975;-67
2023/05/25 07:10:24;;;;;;;17.70;8.60;;;;;;;;;;5073020;28;20924;-67
2023/05/25 07:12:51;;;;;;;20.43;9.40;;;;;;;;;;5073240;28;20538;-67
2023/05/25 07:15:20;;;;;;;15.73;8.80;;;;;;;;;;5072882;28;20449;-67
2023/05/25 07:17:47;;;;;;;10.40;8.47;;;;;;;;;;5073207;28;20474;-67
2023/05/25 07:20:14;;;;;;;12.87;8.93;;;;;;;;;;5074000;28;20530;-67
2023/05/25 07:22:43;;;;;;;14.70;8.53;;;;;;;;;;5073055;28;20485;-67
2023/05/25 07:25:10;;;;;;;14.10;9.10;;;;;;;;;;5073062;28;20542;-67
2023/05/25 07:27:38;;;;;;;14.17;9.70;;;;;;;;;;5072897;28;20513;-67
2023/05/25 07:30:06;;;;;;;17.63;9.20;;;;;;;;;;5072639;28;20453;-68
2023/05/25 07:32:33;;;;;;;18.97;10.03;;;;;;;;;;5072938;28;20472;-67
2023/05/25 07:35:01;;;;;;;13.17;8.93;;;;;;;;;;5072888;28;20799;-68
2023/05/25 07:37:28;;;;;;;28.40;9.67;;;;;;;;;;5072495;28;20923;-68
2023/05/25 07:39:56;;;;;;;11.57;9.80;;;;;;;;;;5072601;28;20446;-67
2023/05/25 07:42:23;;;;;;;14.70;8.67;;;;;;;;;;5072724;28;20570;-67
2023/05/25 07:44:51;;;;;;;16.50;9.90;;;;;;;;;;5072366;28;20538;-68
2023/05/25 07:47:18;;;;;;;14.43;10.10;;;;;;;;;;5072630;28;20447;-67
2023/05/25 07:49:45;;;;;;;17.77;9.53;;;;;;;;;;5072355;28;20504;-68
2023/05/25 07:52:12;;;;;;;225.57;31.47;;;;;;;;;;5072477;28;20450;-67
2023/05/25 07:54:39;;;;;;;16.80;10.63;;;;;;;;;;5073312;28;20468;-68
2023/05/25 07:57:08;;;;;;;14.73;9.30;;;;;;;;;;5072751;28;20521;-67
2023/05/25 07:59:35;;;;;;;15.00;10.60;;;;;;;;;;5072750;28;20438;-67
2023/05/25 08:02:02;;;;;;;14.07;8.80;;;;;;;;;;5072576;28;20466;-67
2023/05/25 08:04:32;;;;;;;23.40;11.10;;;;;;;;;;5073123;28;20500;-67
2023/05/25 08:07:00;;;;;;;17.20;10.00;;;;;;;;;;5073279;28;20447;-67
2023/05/25 08:09:27;;;;;;;15.67;10.67;;;;;;;;;;5072438;28;20929;-67
2023/05/25 08:11:54;;;;;;;23.23;11.23;;;;;;;;;;5072800;28;20451;-67
2023/05/25 08:14:23;;;;;;;16.27;9.70;;;;;;;;;;5073609;28;20438;-67
2023/05/25 08:16:51;;;;;;;15.37;9.90;;;;;;;;;;5076274;28;20520;-67
2023/05/25 08:19:18;;;;;;;15.77;10.73;;;;;;;;;;5076465;28;20446;-67
2023/05/25 08:21:45;;;;;;;15.63;8.73;;;;;;;;;;5076055;28;20442;-67
2023/05/25 08:24:13;;;;;;;20.57;10.23;;;;;;;;;;5076671;28;20443;-67
2023/05/25 08:26:40;;;;;;;21.00;10.47;;;;;;;;;;5076330;28;20449;-68
2023/05/25 08:29:07;;;;;;;13.60;10.07;;;;;;;;;;5076133;28;20445;-67
2023/05/25 08:31:36;;;;;;;19.07;10.60;;;;;;;;;;5075856;28;20445;-68
2023/05/25 08:34:03;;;;;;;17.67;10.30;;;;;;;;;;5075582;28;20451;-67
2023/05/25 08:36:32;;;;;;;16.20;8.93;;;;;;;;;;5076017;28;20477;-67
2023/05/25 08:39:00;;;;;;;14.17;8.80;;;;;;;;;;5075589;28;20443;-67
2023/05/25 08:41:27;;;;;;;15.50;8.10;;;;;;;;;;5076066;28;20448;-67
2023/05/25 08:43:54;;;;;;;11.40;8.47;;;;;;;;;;5075719;28;20484;-67
2023/05/25 08:46:25;;;;;;;15.80;8.70;;;;;;;;;;5075910;28;20439;-67
2023/05/25 08:48:55;;;;;;;16.10;10.03;;;;;;;;;;5075443;28;20426;-67
2023/05/25 08:51:23;;;;;;;11.63;8.30;;;;;;;;;;5076081;28;20420;-67
2023/05/25 08:53:50;;;;;;;24.13;8.93;;;;;;;;;;5075646;28;20545;-67
2023/05/25 08:56:20;;;;;;;15.30;8.63;;;;;;;;;;5075404;28;20448;-67
2023/05/25 08:58:52;;;;;;;22.97;9.80;;;;;;;;;;5075509;28;20447;-67
2023/05/25 09:01:20;;;;;;;10.67;7.50;;;;;;;;;;5075333;28;20493;-67
2023/05/25 09:03:48;;;;;;;12.30;7.23;;;;;;;;;;5075498;28;20487;-67
2023/05/25 09:06:18;;;;;;;14.43;7.20;;;;;;;;;;5075203;28;20453;-67
2023/05/25 09:08:45;;;;;;;9.03;7.43;;;;;;;;;;5075339;28;20443;-67
2023/05/25 09:11:13;;;;;;;19.43;8.73;;;;;;;;;;5075765;28;20447;-67
2023/05/25 09:13:40;;;;;;;19.00;10.67;;;;;;;;;;5075029;28;20585;-67
2023/05/25 09:16:07;;;;;;;12.30;6.97;;;;;;;;;;5075420;28;20482;-67
2023/05/25 09:18:35;;;;;;;14.13;7.63;;;;;;;;;;5075155;28;20443;-67
2023/05/25 09:21:02;;;;;;;12.83;7.40;;;;;;;;;;5075061;28;20454;-67
2023/05/25 09:23:30;;;;;;;12.27;6.93;;;;;;;;;;5074700;28;20479;-67
2023/05/25 09:25:58;;;;;;;18.33;9.10;;;;;;;;;;5075018;28;20457;-67
2023/05/25 09:28:25;;;;;;;12.73;7.63;;;;;;;;;;5074666;28;20447;-67
2023/05/25 09:30:53;;;;;;;18.30;8.50;;;;;;;;;;5074693;28;20444;-67
2023/05/25 09:33:20;;;;;;;15.50;7.87;;;;;;;;;;5074699;28;20543;-67
2023/05/25 09:35:50;;;;;;;12.30;7.07;;;;;;;;;;5074689;28;20456;-67
2023/05/25 09:38:17;;;;;;;14.20;7.20;;;;;;;;;;5074633;28;20457;-67
2023/05/25 09:40:46;;;;;;;16.33;7.53;;;;;;;;;;5074277;28;20443;-67
2023/05/25 09:43:13;;;;;;;8.80;6.33;;;;;;;;;;5074230;28;20566;-67
2023/05/25 09:45:41;;;;;;;14.83;6.43;;;;;;;;;;5074844;28;20511;-67
2023/05/25 09:48:08;;;;;;;11.60;7.10;;;;;;;;;;5075092;28;20538;-68
2023/05/25 09:50:36;;;;;;;20.70;7.23;;;;;;;;;;5074592;28;20452;-68
2023/05/25 09:53:03;;;;;;;17.07;8.93;;;;;;;;;;5074795;28;20779;-68
2023/05/25 09:55:31;;;;;;;12.67;7.40;;;;;;;;;;5074398;28;20761;-67
2023/05/25 09:58:00;;;;;;;14.57;7.17;;;;;;;;;;5073967;28;20474;-67
2023/05/25 10:00:27;;;;;;;12.83;7.50;;;;;;;;;;5074183;28;20454;-67
2023/05/25 10:02:54;;;;;;;12.00;7.30;;;;;;;;;;5074496;28;20892;-67
2023/05/25 10:05:22;;;;;;;11.27;7.13;;;;;;;;;;5073945;28;20945;-68
2023/05/25 10:07:51;;;;;;;14.50;7.53;;;;;;;;;;5074605;28;20443;-67
2023/05/25 10:10:19;;;;;;;13.53;6.53;;;;;;;;;;5074097;28;20451;-67
2023/05/25 10:12:49;;;;;;;9.43;6.10;;;;;;;;;;5074119;28;20447;-67
2023/05/25 10:15:19;;;;;;;12.47;6.37;;;;;;;;;;5074415;28;20440;-67
2023/05/25 10:17:53;;;;;;;11.90;6.43;;;;;;;;;;5074508;28;20526;-67
2023/05/25 10:20:21;;;;;;;14.67;6.93;;;;;;;;;;5074017;28;20443;-67
2023/05/25 10:22:53;;;;;;;80.50;12.53;;;;;;;;;;5073873;28;20490;-67
2023/05/25 10:25:23;;;;;;;16.33;6.70;;;;;;;;;;5073859;28;20509;-67
2023/05/25 10:27:56;;;;;;;8.93;6.10;;;;;;;;;;5074108;28;20450;-67
2023/05/25 10:30:26;;;;;;;15.20;6.57;;;;;;;;;;5073608;28;20832;-67
2023/05/25 10:32:54;;;;;;;7.93;6.03;;;;;;;;;;5073423;28;20444;-67
2023/05/25 10:35:21;;;;;;;18.50;5.63;;;;;;;;;;5073450;28;20454;-69
2023/05/25 10:37:51;;;;;;;10.10;6.27;;;;;;;;;;5073244;28;20440;-67
2023/05/25 10:40:19;;;;;;;15.43;6.50;;;;;;;;;;5073285;28;20438;-67
2023/05/25 10:42:47;;;;;;;9.60;6.57;;;;;;;;;;5074384;28;20569;-67
2023/05/25 10:45:15;;;;;;;12.87;6.20;;;;;;;;;;5073611;28;20465;-67
2023/05/25 10:47:45;;;;;;;14.13;6.20;;;;;;;;;;5073812;28;20814;-67
2023/05/25 10:50:29;;;;;;;11.77;6.37;;;;;;;;;;5073488;28;20875;-67
2023/05/25 10:53:01;;;;;;;9.87;6.63;;;;;;;;;;5073244;28;20900;-67
2023/05/25 10:55:31;;;;;;;12.57;6.80;;;;;;;;;;5073663;28;20442;-67
2023/05/25 10:58:08;;;;;;;13.60;7.33;;;;;;;;;;5073758;28;20451;-67
2023/05/25 11:00:35;;;;;;;15.27;5.87;;;;;;;;;;5073378;28;20440;-67
2023/05/25 11:03:04;;;;;;;10.90;5.90;;;;;;;;;;5073278;28;20501;-67
2023/05/25 11:05:36;;;;;;;21.33;7.80;;;;;;;;;;5072956;28;20450;-67
2023/05/25 11:08:04;;;;;;;18.80;6.50;;;;;;;;;;5073487;28;20429;-67
2023/05/25 11:10:58;;;;;;;14.43;5.97;;;;;;;;;;5073057;28;20442;-67
2023/05/25 11:13:36;;;;;;;15.13;8.23;;;;;;;;;;5037586;28;20455;-67
2023/05/25 11:16:13;;;;;;;15.30;5.83;;;;;;;;;;5073127;28;20482;-67
2023/05/25 11:18:43;;;;;;;35.03;6.63;;;;;;;;;;5072914;28;20428;-67
2023/05/25 11:21:18;;;;;;;10.93;5.60;;;;;;;;;;5073074;28;20528;-67
2023/05/25 11:23:55;;;;;;;13.50;6.17;;;;;;;;;;5073243;28;20857;-67
2023/05/25 11:26:23;;;;;;;11.60;5.40;;;;;;;;;;5073489;28;20805;-67
2023/05/25 11:28:51;;;;;;;21.80;5.67;;;;;;;;;;5073115;28;20432;-67
2023/05/25 11:31:22;;;;;;;8.60;5.83;;;;;;;;;;5073082;28;20446;-67
2023/05/25 11:33:50;;;;;;;9.13;4.67;;;;;;;;;;5073503;28;20814;-67
2023/05/25 11:36:19;;;;;;;12.40;4.47;;;;;;;;;;5072702;28;20995;-73
2023/05/25 11:38:46;;;;;;;9.33;4.70;;;;;;;;;;5072681;28;20472;-68
2023/05/25 11:41:17;;;;;;;7.10;5.23;;;;;;;;;;5073003;28;20453;-68
2023/05/25 11:43:46;;;;;;;8.70;4.40;;;;;;;;;;5072942;28;20583;-67
2023/05/25 11:46:13;;;;;;;8.93;5.03;;;;;;;;;;5073106;28;20464;-67
2023/05/25 11:48:46;;;;;;;6.30;4.30;;;;;;;;;;5072693;28;20505;-67
2023/05/25 11:51:15;;;;;;;5.23;4.03;;;;;;;;;;5076948;28;20416;-68
2023/05/25 11:53:43;;;;;;;12.83;4.00;;;;;;;;;;5076712;28;20456;-67
2023/05/25 11:56:11;;;;;;;6.83;4.20;;;;;;;;;;5076270;28;20438;-66
2023/05/25 11:58:38;;;;;;;8.77;4.20;;;;;;;;;;5075740;28;20436;-67
2023/05/25 12:01:18;;;;;;;9.17;4.43;;;;;;;;;;5076540;28;20443;-67
2023/05/25 12:03:46;;;;;;;8.17;4.60;;;;;;;;;;5076244;28;20465;-67
2023/05/25 12:06:28;;;;;;;6.03;3.83;;;;;;;;;;5076532;28;20447;-67
2023/05/25 12:08:55;;;;;;;8.20;5.00;;;;;;;;;;5076610;28;20451;-67
2023/05/25 12:11:29;;;;;;;10.87;5.73;;;;;;;;;;5076516;28;20448;-67
2023/05/25 12:13:56;;;;;;;9.73;5.10;;;;;;;;;;5076383;28;20453;-67
2023/05/25 12:16:23;;;;;;;7.40;4.93;;;;;;;;;;5076176;28;20471;-67
2023/05/25 12:18:51;;;;;;;5.23;4.70;;;;;;;;;;5076233;28;20748;-67
2023/05/25 12:21:18;;;;;;;7.03;4.87;;;;;;;;;;5076005;28;20817;-67
2023/05/25 12:23:47;;;;;;;7.07;4.63;;;;;;;;;;5076290;28;20852;-67
2023/05/25 12:26:15;;;;;;;8.57;4.80;;;;;;;;;;5075631;28;20971;-67
2023/05/25 12:28:57;;;;;;;8.00;4.60;;;;;;;;;;5075993;28;20451;-67
2023/05/25 12:31:25;;;;;;;16.70;5.20;;;;;;;;;;5075958;28;20452;-67
2023/05/25 12:34:05;;;;;;;7.60;4.67;;;;;;;;;;5076038;28;20531;-67
2023/05/25 12:36:42;;;;;;;7.30;4.27;;;;;;;;;;5075477;28;20450;-67
2023/05/25 12:39:11;;;;;;;10.73;4.60;;;;;;;;;;5076157;28;20424;-67
2023/05/25 12:41:49;;;;;;;10.03;4.87;;;;;;;;;;5075160;28;20451;-67
2023/05/25 12:44:17;;;;;;;8.77;4.57;;;;;;;;;;5075472;28;20463;-67
2023/05/25 12:46:44;;;;;;;9.40;4.43;;;;;;;;;;5075694;28;20449;-67
2023/05/25 12:49:22;;;;;;;9.03;4.40;;;;;;;;;;5075801;28;20439;-67
2023/05/25 12:51:49;;;;;;;8.03;4.47;;;;;;;;;;5075695;28;20446;-67
2023/05/25 12:54:33;;;;;;;11.40;4.87;;;;;;;;;;5075619;28;20538;-67
2023/05/25 12:57:01;;;;;;;11.80;4.67;;;;;;;;;;5075541;28;20519;-67
2023/05/25 12:59:28;;;;;;;11.93;5.70;;;;;;;;;;5075847;28;20440;-67
2023/05/25 13:01:56;;;;;;;13.60;4.80;;;;;;;;;;5075264;28;20447;-67
2023/05/25 13:04:23;;;;;;;8.87;4.27;;;;;;;;;;5075672;28;20484;-67
2023/05/25 13:06:50;;;;;;;8.63;4.30;;;;;;;;;;5075315;28;20455;-66
2023/05/25 13:09:19;;;;;;;10.63;5.00;;;;;;;;;;5075854;28;20447;-67
2023/05/25 13:11:46;;;;;;;11.43;5.17;;;;;;;;;;5075576;28;20435;-66
2023/05/25 13:14:13;;;;;;;7.60;4.87;;;;;;;;;;5074972;28;20433;-66
2023/05/25 13:16:41;;;;;;;11.23;4.57;;;;;;;;;;5074737;28;20476;-67
2023/05/25 13:19:08;;;;;;;11.50;5.87;;;;;;;;;;5075729;28;20450;-67
2023/05/25 13:21:35;;;;;;;9.07;5.50;;;;;;;;;;5074751;28;20458;-67
2023/05/25 13:24:02;;;;;;;5.80;4.20;;;;;;;;;;5074999;28;20492;-68
2023/05/25 13:26:31;;;;;;;10.83;4.50;;;;;;;;;;5074864;28;20448;-67
2023/05/25 13:28:58;;;;;;;15.23;4.57;;;;;;;;;;5075471;28;20440;-67
2023/05/25 13:31:25;;;;;;;6.63;4.30;;;;;;;;;;5074599;28;20443;-68
2023/05/25 13:33:53;;;;;;;14.23;4.70;;;;;;;;;;5075134;28;20448;-67
2023/05/25 13:36:20;;;;;;;9.10;4.53;;;;;;;;;;5075174;28;20444;-68
2023/05/25 13:38:47;;;;;;;9.53;5.60;;;;;;;;;;5074545;28;20937;-68
2023/05/25 13:41:16;;;;;;;13.13;4.00;;;;;;;;;;5074399;28;20443;-67
2023/05/25 13:43:46;;;;;;;10.93;4.47;;;;;;;;;;5074730;28;20479;-67
2023/05/25 13:46:13;;;;;;;12.13;4.50;;;;;;;;;;5075072;28;20895;-67
2023/05/25 13:48:46;;;;;;;14.00;5.10;;;;;;;;;;5074606;28;20444;-67
2023/05/25 13:51:13;;;;;;;10.33;4.30;;;;;;;;;;5074787;28;20515;-68
2023/05/25 13:53:40;;;;;;;9.47;4.40;;;;;;;;;;5074230;28;20436;-66
2023/05/25 13:56:07;;;;;;;10.00;4.07;;;;;;;;;;5074503;28;20445;-68
2023/05/25 13:58:35;;;;;;;10.07;4.27;;;;;;;;;;5074033;28;20451;-67
2023/05/25 14:01:04;;;;;;;14.87;4.70;;;;;;;;;;5073670;28;20514;-69
2023/05/25 14:03:31;;;;;;;11.03;4.40;;;;;;;;;;5074147;28;20501;-66
2023/05/25 14:05:58;;;;;;;9.67;5.33;;;;;;;;;;5074152;28;20443;-67
2023/05/25 14:08:26;;;;;;;13.13;5.30;;;;;;;;;;5074166;28;20437;-66
2023/05/25 14:10:53;;;;;;;7.13;4.70;;;;;;;;;;5073807;28;20974;-66
2023/05/25 14:13:21;;;;;;;12.33;4.90;;;;;;;;;;5073264;28;20436;-66
2023/05/25 14:15:48;;;;;;;11.00;4.77;;;;;;;;;;5073838;28;20575;-66
2023/05/25 14:18:16;;;;;;;14.33;4.80;;;;;;;;;;5073776;28;20444;-66
2023/05/25 14:20:43;;;;;;;14.10;4.77;;;;;;;;;;5074056;28;20447;-66
2023/05/25 14:23:11;;;;;;;10.07;4.80;;;;;;;;;;5073489;28;20459;-66
2023/05/25 14:25:38;;;;;;;11.20;5.13;;;;;;;;;;5073869;28;20498;-66
2023/05/25 14:28:05;;;;;;;11.17;4.87;;;;;;;;;;5073754;28;20437;-66
2023/05/25 14:30:32;;;;;;;11.30;4.47;;;;;;;;;;5073521;28;20444;-65
2023/05/25 14:32:59;;;;;;;9.13;4.77;;;;;;;;;;5073768;28;20436;-65
2023/05/25 14:35:28;;;;;;;11.23;5.00;;;;;;;;;;5074364;28;20440;-66
2023/05/25 14:37:55;;;;;;;10.83;4.63;;;;;;;;;;5073488;28;20433;-65